Time;durP1;ratioP1;P1;durP2;ratioP2;P2;SDS_P1;SDS_P2;PMS_P1;PMS_P2;Temp;Humidity;BMP_temperature;BMP_pressure;BME280_temperature;BME280_humidity;BME280_pressure;Samples;Min_cycle;Max_cycle;Signal;HPM_P1;HPM_P2
2021/03/02 00:01:36;;;;;;;;;;;;;;;8.19;50.91;102406.78;4999237;28;7674;-77
2021/03/02 00:04:04;;;;;;;;;;;;;;;8.18;50.76;102404.09;4997700;28;7150;-76
2021/03/02 00:06:29;;;;;;;;;;;;;;;8.13;51.04;102405.53;5013735;28;7242;-78
2021/03/02 00:08:55;;;;;;;;;;;;;;;8.10;51.05;102401.06;5000157;28;7079;-78
2021/03/02 00:11:21;;;;;;;;;;;;;;;8.01;51.72;102408.28;4997632;28;7528;-78
2021/03/02 00:13:47;;;;;;;;;;;;;;;7.99;51.14;102394.34;5000542;28;6945;-78
2021/03/02 00:16:12;;;;;;;;;;;;;;;7.94;51.02;102399.25;4993011;28;8396;-77
2021/03/02 00:18:45;;;;;;;;;;;;;;;7.93;51.33;102399.16;4988017;28;7218;-78
2021/03/02 00:21:18;;;;;;;;;;;;;;;7.88;51.13;102401.47;5008972;28;7318;-78
2021/03/02 00:23:57;;;;;;;;;;;;;;;7.87;51.47;102411.72;4980465;28;7579;-77
2021/03/02 00:26:23;;;;;;;;;;;;;;;7.81;51.36;102406.19;4993106;28;7545;-78
2021/03/02 00:28:50;;;;;;;;;;;;;;;7.75;51.64;102409.28;4999359;28;7152;-77
2021/03/02 00:31:15;;;;;;;;;;;;;;;7.74;51.62;102409.19;5013640;28;6798;-78
2021/03/02 00:33:41;;;;;;;;;;;;;;;7.73;51.35;102410.00;4998746;28;7274;-78
2021/03/02 00:36:07;;;;;;;;;;;;;;;7.68;51.92;102408.81;4999876;28;6799;-78
2021/03/02 00:38:33;;;;;;;;;;;;;;;7.63;51.62;102411.13;4998074;28;11030;-77
2021/03/02 00:40:58;;;;;;;;;;;;;;;7.59;51.41;102410.03;5013185;28;7103;-77
2021/03/02 00:43:24;;;;;;;;;;;;;;;7.56;51.79;102415.00;5000091;28;7048;-77
2021/03/02 00:45:49;;;;;;;;;;;;;;;7.53;51.56;102420.00;5000307;28;6811;-77
2021/03/02 00:48:15;;;;;;;;;;;;;;;7.51;51.55;102413.84;5001340;28;7367;-77
2021/03/02 00:50:40;;;;;;;;;;;;;;;7.45;51.47;102415.16;5000849;28;7233;-77
2021/03/02 00:53:06;;;;;;;;;;;;;;;7.42;51.60;102413.28;4999284;28;7110;-78
2021/03/02 00:55:31;;;;;;;;;;;;;;;7.39;51.91;102414.75;5000166;28;7849;-78
2021/03/02 00:57:57;;;;;;;;;;;;;;;7.34;51.72;102417.06;5000196;28;6808;-78
2021/03/02 01:00:23;;;;;;;;;;;;;;;7.33;52.05;102416.19;5000693;28;7435;-78
2021/03/02 01:02:48;;;;;;;;;;;;;;;7.28;52.14;102421.84;5001474;28;7185;-78
2021/03/02 01:05:14;;;;;;;;;;;;;;;7.27;51.71;102420.06;5000322;28;6810;-77
2021/03/02 01:07:40;;;;;;;;;;;;;;;7.23;51.99;102420.69;4997481;28;7598;-77
2021/03/02 01:10:06;;;;;;;;;;;;;;;7.19;52.29;102421.25;4999423;28;7273;-77
2021/03/02 01:12:32;;;;;;;;;;;;;;;7.16;52.07;102415.91;5015039;28;7202;-77
2021/03/02 01:14:57;;;;;;;;;;;;;;;7.12;51.95;102419.09;5000437;28;6803;-77
2021/03/02 01:17:23;;;;;;;;;;;;;;;7.09;52.57;102424.06;5016845;28;6779;-78
2021/03/02 01:19:48;;;;;;;;;;;;;;;7.07;52.39;102417.91;4973592;28;6808;-77
2021/03/02 01:22:14;;;;;;;;;;;;;;;7.03;52.21;102423.69;5009348;28;7110;-78
2021/03/02 01:24:40;;;;;;;;;;;;;;;6.99;52.52;102413.13;5006040;28;7159;-77
2021/03/02 01:27:05;;;;;;;;;;;;;;;6.95;52.61;102421.47;5020775;28;7230;-77
2021/03/02 01:29:31;;;;;;;;;;;;;;;6.94;52.25;102424.88;5001669;28;6796;-77
2021/03/02 01:31:56;;;;;;;;;;;;;;;6.88;52.05;102419.31;5008434;28;6994;-77
2021/03/02 01:34:22;;;;;;;;;;;;;;;6.84;52.46;102422.50;4991962;28;9428;-78
2021/03/02 01:36:48;;;;;;;;;;;;;;;6.83;52.58;102419.81;5008775;28;7814;-77
2021/03/02 01:39:13;;;;;;;;;;;;;;;6.80;52.19;102420.47;5007387;28;7251;-78
2021/03/02 01:41:39;;;;;;;;;;;;;;;6.77;52.49;102417.72;5005966;28;7485;-78
2021/03/02 01:44:05;;;;;;;;;;;;;;;6.72;52.73;102422.59;5009459;28;11753;-77
2021/03/02 01:46:30;;;;;;;;;;;;;;;6.71;52.59;102419.91;5003617;28;7091;-77
2021/03/02 01:48:56;;;;;;;;;;;;;;;6.68;53.06;102422.28;5002866;28;7117;-78
2021/03/02 01:51:22;;;;;;;;;;;;;;;6.65;52.47;102416.94;5005996;28;7109;-78
2021/03/02 01:53:47;;;;;;;;;;;;;;;6.62;52.94;102415.03;5017602;28;7214;-78
2021/03/02 01:56:13;;;;;;;;;;;;;;;6.59;52.77;102419.97;5002360;28;7336;-77
2021/03/02 01:58:38;;;;;;;;;;;;;;;6.55;52.91;102411.94;5002895;28;7389;-77
2021/03/02 02:01:06;;;;;;;;;;;;;;;6.50;53.34;102408.16;5002594;28;7103;-78
2021/03/02 02:03:51;;;;;;;;;;;;;;;6.49;53.12;102406.38;5016087;28;7181;-77
2021/03/02 02:06:39;;;;;;;;;;;;;;;6.46;53.25;102408.78;4990069;28;11618;-78
2021/03/02 02:09:13;;;;;;;;;;;;;;;6.42;52.86;102409.38;5025396;28;8625;-77
2021/03/02 02:11:42;;;;;;;;;;;;;;;6.39;53.45;102408.34;4985388;28;11376;-78
2021/03/02 02:14:38;;;;;;;;;;;;;;;6.36;53.54;102399.50;5008652;28;11408;-77
2021/03/02 02:17:06;;;;;;;;;;;;;;;6.36;53.44;102404.66;4991330;28;11866;-78
2021/03/02 02:19:41;;;;;;;;;;;;;;;6.32;53.22;102402.69;4974732;28;6970;-78
2021/03/02 02:22:22;;;;;;;;;;;;;;;6.29;52.77;102397.31;5000665;28;12908;-78
2021/03/02 02:25:02;;;;;;;;;;;;;;;6.15;53.66;102401.53;5004017;28;12403;-77
2021/03/02 02:27:28;;;;;;;;;;;;;;;6.17;53.32;102402.53;5005335;28;8614;-77
2021/03/02 02:29:54;;;;;;;;;;;;;;;6.19;53.65;102400.94;4991811;28;7269;-78
2021/03/02 02:32:19;;;;;;;;;;;;;;;6.16;53.36;102399.84;4991710;28;8919;-78
2021/03/02 02:34:45;;;;;;;;;;;;;;;6.06;53.65;102401.84;4992074;28;7401;-77
2021/03/02 02:37:10;;;;;;;;;;;;;;;6.07;53.32;102402.72;4989677;28;7136;-77
2021/03/02 02:39:36;;;;;;;;;;;;;;;6.06;53.50;102404.41;4974679;28;7139;-77
2021/03/02 02:42:02;;;;;;;;;;;;;;;6.03;53.65;102395.59;4990665;28;7245;-77
2021/03/02 02:44:27;;;;;;;;;;;;;;;6.04;53.54;102398.25;4987428;28;8019;-78
2021/03/02 02:46:54;;;;;;;;;;;;;;;5.99;53.47;102391.88;4993305;28;7284;-78
2021/03/02 02:49:20;;;;;;;;;;;;;;;5.96;53.61;102394.25;4992735;28;6784;-77
2021/03/02 02:51:45;;;;;;;;;;;;;;;5.95;53.75;102395.03;4992792;28;6972;-77
2021/03/02 02:54:12;;;;;;;;;;;;;;;5.91;54.00;102397.31;4989818;28;7214;-77
2021/03/02 02:56:38;;;;;;;;;;;;;;;5.90;53.86;102405.84;4988713;28;12441;-77
2021/03/02 02:59:28;;;;;;;;;;;;;;;5.86;53.71;102406.41;4986991;28;7065;-78
2021/03/02 03:01:56;;;;;;;;;;;;;;;5.83;53.76;102398.44;4992134;28;11596;-77
2021/03/02 03:04:24;;;;;;;;;;;;;;;5.81;53.78;102400.94;5001936;28;7245;-77
2021/03/02 03:06:50;;;;;;;;;;;;;;;5.77;54.22;102399.78;4993506;28;7197;-77
2021/03/02 03:09:16;;;;;;;;;;;;;;;5.73;54.20;102402.97;4987283;28;7202;-77
2021/03/02 03:11:46;;;;;;;;;;;;;;;5.68;54.16;102400.88;4969740;28;8504;-77
2021/03/02 03:14:13;;;;;;;;;;;;;;;5.67;54.27;102407.69;5010046;28;13131;-77
2021/03/02 03:16:40;;;;;;;;;;;;;;;5.66;54.33;102403.34;5008314;28;11261;-77
2021/03/02 03:19:05;;;;;;;;;;;;;;;5.66;54.44;102405.91;5007109;28;8342;-78
2021/03/02 03:21:31;;;;;;;;;;;;;;;5.63;54.14;102410.84;5007930;28;7011;-78
2021/03/02 03:23:56;;;;;;;;;;;;;;;5.60;54.13;102405.47;5002689;28;7417;-77
2021/03/02 03:26:23;;;;;;;;;;;;;;;5.56;54.75;102403.47;5000890;28;7289;-77
2021/03/02 03:28:50;;;;;;;;;;;;;;;5.57;54.32;102405.25;4999464;28;7341;-77
2021/03/02 03:31:15;;;;;;;;;;;;;;;5.51;54.24;102402.25;5001561;28;6819;-78
2021/03/02 03:33:41;;;;;;;;;;;;;;;5.47;54.60;102392.53;4992277;28;8654;-78
2021/03/02 03:36:08;;;;;;;;;;;;;;;5.46;54.25;102398.47;4993688;28;6852;-77
2021/03/02 03:38:33;;;;;;;;;;;;;;;5.45;54.32;102404.41;5000058;28;8842;-77
2021/03/02 03:40:59;;;;;;;;;;;;;;;5.44;54.63;102408.69;5017375;28;6781;-77
2021/03/02 03:43:24;;;;;;;;;;;;;;;5.42;54.25;102404.22;5002384;28;7390;-77
2021/03/02 03:45:50;;;;;;;;;;;;;;;5.39;54.47;102404.84;5017639;28;7272;-77
2021/03/02 03:48:15;;;;;;;;;;;;;;;5.38;54.71;102402.19;5001413;28;8533;-77
2021/03/02 03:50:41;;;;;;;;;;;;;;;5.33;54.76;102413.84;5002671;28;8397;-78
2021/03/02 03:53:06;;;;;;;;;;;;;;;5.33;54.32;102412.16;5000836;28;7269;-77
2021/03/02 03:55:36;;;;;;;;;;;;;;;5.29;54.19;102412.75;4999496;28;6795;-77
2021/03/02 03:58:02;;;;;;;;;;;;;;;5.30;54.24;102418.78;4999094;28;6938;-77
2021/03/02 04:00:28;;;;;;;;;;;;;;;5.24;54.77;102413.22;4999636;28;6824;-78
2021/03/02 04:02:53;;;;;;;;;;;;;;;5.23;54.18;102414.91;5015115;28;7296;-77
2021/03/02 04:05:19;;;;;;;;;;;;;;;5.19;54.63;102413.75;5000531;28;6794;-78
2021/03/02 04:07:44;;;;;;;;;;;;;;;5.19;54.86;102406.03;4999533;28;8532;-77
2021/03/02 04:10:11;;;;;;;;;;;;;;;5.13;54.32;102408.19;4999163;28;7079;-77
2021/03/02 04:12:39;;;;;;;;;;;;;;;5.14;54.71;102403.91;5014352;28;6808;-78
2021/03/02 04:15:12;;;;;;;;;;;;;;;5.12;54.58;102408.97;5016804;28;7518;-77
2021/03/02 04:17:37;;;;;;;;;;;;;;;5.10;54.30;102410.53;5002469;28;6821;-78
2021/03/02 04:20:04;;;;;;;;;;;;;;;5.08;54.63;102406.06;4981980;28;7174;-77
2021/03/02 04:22:31;;;;;;;;;;;;;;;5.05;54.85;102409.31;4996745;28;7067;-77
2021/03/02 04:24:56;;;;;;;;;;;;;;;5.05;54.59;102408.44;4995979;28;8482;-78
2021/03/02 04:27:22;;;;;;;;;;;;;;;5.00;54.81;102412.31;5002639;28;6806;-77
2021/03/02 04:29:47;;;;;;;;;;;;;;;4.99;54.90;102408.84;5001283;28;6791;-77
2021/03/02 04:32:13;;;;;;;;;;;;;;;4.97;54.67;102407.84;5001369;28;6860;-77
2021/03/02 04:34:38;;;;;;;;;;;;;;;4.98;54.95;102412.22;5002768;28;6791;-77
2021/03/02 04:37:04;;;;;;;;;;;;;;;4.94;55.16;102409.31;5001846;28;6783;-77
2021/03/02 04:39:29;;;;;;;;;;;;;;;4.88;55.20;102415.81;5015624;28;9431;-77
2021/03/02 04:41:55;;;;;;;;;;;;;;;4.87;55.17;102410.56;4998073;28;7313;-77
2021/03/02 04:44:20;;;;;;;;;;;;;;;4.89;54.81;102411.56;4999601;28;6918;-78
2021/03/02 04:46:46;;;;;;;;;;;;;;;4.86;54.97;102419.06;5013758;28;7075;-77
2021/03/02 04:49:11;;;;;;;;;;;;;;;4.81;54.72;102421.31;4996169;28;6796;-77
2021/03/02 04:51:37;;;;;;;;;;;;;;;4.83;55.53;102418.84;5000786;28;6795;-77
2021/03/02 04:54:03;;;;;;;;;;;;;;;4.81;55.06;102412.69;5013606;28;6792;-78
2021/03/02 04:56:28;;;;;;;;;;;;;;;4.77;55.21;102416.69;4991455;28;8497;-77
2021/03/02 04:58:54;;;;;;;;;;;;;;;4.75;55.52;102420.84;4997649;28;6990;-77
2021/03/02 05:01:19;;;;;;;;;;;;;;;4.76;55.03;102421.75;4997516;28;7314;-77
2021/03/02 05:03:45;;;;;;;;;;;;;;;4.73;54.80;102417.28;4999397;28;6964;-78
2021/03/02 05:06:10;;;;;;;;;;;;;;;4.71;55.84;102423.09;5000787;28;7250;-77
2021/03/02 05:08:36;;;;;;;;;;;;;;;4.68;54.87;102418.63;4981611;28;8459;-77
2021/03/02 05:11:01;;;;;;;;;;;;;;;4.64;55.02;102423.44;4997688;28;6823;-78
2021/03/02 05:13:27;;;;;;;;;;;;;;;4.64;55.44;102420.88;4997830;28;7021;-77
2021/03/02 05:15:52;;;;;;;;;;;;;;;4.64;55.41;102413.16;4997708;28;7315;-75
2021/03/02 05:18:18;;;;;;;;;;;;;;;4.62;55.55;102410.47;4997510;28;7214;-75
2021/03/02 05:20:43;;;;;;;;;;;;;;;4.61;55.33;102420.63;4996391;28;7273;-74
2021/03/02 05:23:09;;;;;;;;;;;;;;;4.58;55.60;102416.13;4994716;28;8104;-74
2021/03/02 05:25:34;;;;;;;;;;;;;;;4.55;55.77;102423.63;4993250;28;6852;-74
2021/03/02 05:28:00;;;;;;;;;;;;;;;4.56;55.28;102423.75;4998291;28;6868;-73
2021/03/02 05:30:25;;;;;;;;;;;;;;;4.56;55.32;102423.75;5000733;28;6889;-73
2021/03/02 05:32:51;;;;;;;;;;;;;;;4.56;55.55;102428.00;4999734;28;7369;-72
2021/03/02 05:35:16;;;;;;;;;;;;;;;4.53;55.91;102426.09;4999909;28;6970;-75
2021/03/02 05:37:42;;;;;;;;;;;;;;;4.50;55.96;102423.31;4998819;28;6796;-73
2021/03/02 05:40:08;;;;;;;;;;;;;;;4.48;55.69;102418.81;4999912;28;7198;-77
2021/03/02 05:42:34;;;;;;;;;;;;;;;4.46;56.09;102423.88;4999907;28;7263;-77
2021/03/02 05:45:02;;;;;;;;;;;;;;;4.44;55.71;102425.44;4984848;28;6989;-77
2021/03/02 05:47:27;;;;;;;;;;;;;;;4.42;55.87;102419.28;4965614;28;8521;-77
2021/03/02 05:49:53;;;;;;;;;;;;;;;4.44;55.55;102417.72;4987287;28;6949;-77
2021/03/02 05:52:19;;;;;;;;;;;;;;;4.43;55.32;102410.78;4985473;28;9342;-78
2021/03/02 05:54:44;;;;;;;;;;;;;;;4.39;55.82;102421.59;4982630;28;7243;-76
2021/03/02 05:57:10;;;;;;;;;;;;;;;4.41;55.94;102422.63;4989086;28;7381;-73
2021/03/02 05:59:35;;;;;;;;;;;;;;;4.54;55.83;102421.84;4999548;28;6791;-73
2021/03/02 06:02:01;;;;;;;;;;;;;;;4.63;54.94;102429.38;4998889;28;6803;-73
2021/03/02 06:04:27;;;;;;;;;;;;;;;4.66;54.87;102430.47;4995875;28;7766;-74
2021/03/02 06:07:01;;;;;;;;;;;;;;;4.68;54.89;102428.03;5011495;28;7473;-73
2021/03/02 06:09:28;;;;;;;;;;;;;;;4.70;55.41;102429.03;4992650;28;7173;-73
2021/03/02 06:12:06;;;;;;;;;;;;;;;4.70;54.98;102421.31;5014622;28;7378;-73
2021/03/02 06:14:34;;;;;;;;;;;;;;;4.72;55.40;102424.88;5009636;28;6820;-73
2021/03/02 06:16:59;;;;;;;;;;;;;;;4.74;54.87;102431.94;4997756;28;6808;-73
2021/03/02 06:19:38;;;;;;;;;;;;;;;4.76;54.49;102429.47;4997216;28;6787;-73
2021/03/02 06:22:03;;;;;;;;;;;;;;;4.78;54.97;102427.91;4997977;28;6892;-73
2021/03/02 06:24:36;;;;;;;;;;;;;;;4.80;54.87;102428.91;4984557;28;7229;-74
2021/03/02 06:27:08;;;;;;;;;;;;;;;4.81;55.03;102433.28;4999165;28;7276;-72
2021/03/02 06:29:34;;;;;;;;;;;;;;;4.82;54.72;102442.81;4982139;28;6819;-73
2021/03/02 06:31:59;;;;;;;;;;;;;;;4.87;54.44;102444.03;5000846;28;7230;-73
2021/03/02 06:34:25;;;;;;;;;;;;;;;4.85;54.58;102436.19;5001339;28;7239;-74
2021/03/02 06:36:53;;;;;;;;;;;;;;;4.89;54.77;102448.50;5000583;28;7228;-74
2021/03/02 06:39:30;;;;;;;;;;;;;;;4.88;54.13;102439.00;5002424;28;7451;-72
2021/03/02 06:42:14;;;;;;;;;;;;;;;4.93;54.27;102441.00;5001144;28;6825;-72
2021/03/02 06:44:45;;;;;;;;;;;;;;;4.96;53.59;102442.09;4999609;28;8335;-73
2021/03/02 06:47:12;;;;;;;;;;;;;;;4.99;53.98;102441.44;4999975;28;6978;-74
2021/03/02 06:49:44;;;;;;;;;;;;;;;4.99;53.76;102447.47;5015120;28;7249;-73
2021/03/02 06:52:12;;;;;;;;;;;;;;;5.04;53.62;102437.53;4997576;28;7321;-73
2021/03/02 06:54:38;;;;;;;;;;;;;;;5.08;53.33;102436.97;4993324;28;7434;-73
2021/03/02 06:57:04;;;;;;;;;;;;;;;5.09;53.49;102439.66;5014325;28;7454;-79
2021/03/02 07:00:18;;;;;;;;;;;;;;;;;;;;;
2021/03/02 07:02:45;;;;;;;;;;;;;;;5.16;53.52;102435.81;4949205;28;20758;-76
2021/03/02 07:05:15;;;;;;;;;;;;;;;5.21;53.67;102434.50;4985578;28;7557;-76
2021/03/02 07:07:41;;;;;;;;;;;;;;;5.21;53.71;102429.34;4980415;28;6823;-76
2021/03/02 07:10:08;;;;;;;;;;;;;;;5.23;53.50;102427.78;4998330;28;7229;-77
2021/03/02 07:12:36;;;;;;;;;;;;;;;5.25;53.30;102425.31;4998480;28;7225;-77
2021/03/02 07:15:02;;;;;;;;;;;;;;;5.30;53.14;102429.09;4999127;28;8769;-77
2021/03/02 07:17:27;;;;;;;;;;;;;;;5.33;53.24;102435.34;4997247;28;8065;-78
2021/03/02 07:19:55;;;;;;;;;;;;;;;5.36;53.11;102429.50;5001814;28;6874;-77
2021/03/02 07:22:20;;;;;;;;;;;;;;;5.41;53.29;102423.94;4999862;28;7230;-79
2021/03/02 07:24:46;;;;;;;;;;;;;;;5.43;53.29;102426.59;5001892;28;6792;-78
2021/03/02 07:27:11;;;;;;;;;;;;;;;5.47;52.79;102429.50;5005055;28;6788;-78
2021/03/02 07:29:37;;;;;;;;;;;;;;;5.50;53.27;102428.81;4988143;28;8628;-78
2021/03/02 07:32:03;;;;;;;;;;;;;;;5.57;53.11;102422.41;5003778;28;7402;-80
2021/03/02 07:34:29;;;;;;;;;;;;;;;5.57;52.95;102428.44;5006226;28;7192;-78
2021/03/02 07:36:54;;;;;;;;;;;;;;;5.62;52.93;102423.66;5003441;28;6798;-80
2021/03/02 07:39:24;;;;;;;;;;;;;;;5.66;52.33;102430.78;5005814;28;6847;-77
2021/03/02 07:41:52;;;;;;;;;;;;;;;5.69;52.49;102421.59;4999812;28;12710;-80
2021/03/02 07:44:17;;;;;;;;;;;;;;;5.74;52.72;102427.06;5005013;28;12970;-79
2021/03/02 07:46:47;;;;;;;;;;;;;;;5.78;52.34;102426.47;5003338;28;7190;-79
2021/03/02 07:49:33;;;;;;;;;;;;;;;5.84;52.02;102429.50;5002813;28;6804;-81
2021/03/02 07:52:02;;;;;;;;;;;;;;;5.88;52.45;102438.31;5002854;28;12463;-80
2021/03/02 07:54:28;;;;;;;;;;;;;;;5.93;52.11;102440.47;5007283;28;7232;-78
2021/03/02 07:57:14;;;;;;;;;;;;;;;5.97;52.00;102437.28;5022478;28;7333;-77
2021/03/02 07:59:39;;;;;;;;;;;;;;;6.01;51.86;102441.91;4998010;28;8423;-78
2021/03/02 08:02:18;;;;;;;;;;;;;;;6.07;52.20;102441.41;5019651;28;7310;-82
2021/03/02 08:04:44;;;;;;;;;;;;;;;6.12;51.70;102432.28;5002509;28;7249;-80
2021/03/02 08:07:20;;;;;;;;;;;;;;;6.16;51.66;102436.88;5016352;28;7193;-79
2021/03/02 08:09:46;;;;;;;;;;;;;;;6.21;51.85;102439.78;5005248;28;7205;-81
2021/03/02 08:12:27;;;;;;;;;;;;;;;6.27;51.37;102435.91;4987809;28;7413;-80
2021/03/02 08:14:53;;;;;;;;;;;;;;;6.32;51.56;102434.53;5004585;28;10996;-82
2021/03/02 08:17:19;;;;;;;;;;;;;;;6.36;51.06;102433.94;5001678;28;6978;-77
2021/03/02 08:19:49;;;;;;;;;;;;;;;6.40;51.17;102428.19;4991981;28;8613;-77
2021/03/02 08:22:17;;;;;;;;;;;;;;;6.47;51.11;102437.25;5018519;28;7028;-80
2021/03/02 08:24:57;;;;;;;;;;;;;;;6.52;50.94;102430.69;5003699;28;8435;-78
2021/03/02 08:27:42;;;;;;;;;;;;;;;6.59;51.09;102435.47;5001541;28;11424;-77
2021/03/02 08:30:12;;;;;;;;;;;;;;;6.64;51.08;102434.09;5002762;28;7364;-79
2021/03/02 08:32:38;;;;;;;;;;;;;;;6.69;50.73;102434.41;5004112;28;8755;-77
2021/03/02 08:35:04;;;;;;;;;;;;;;;6.78;51.02;102442.72;4999936;28;8309;-77
2021/03/02 08:37:55;;;;;;;;;;;;;;;6.84;50.49;102438.00;5002101;28;8676;-79
2021/03/02 08:40:24;;;;;;;;;;;;;;;6.90;50.54;102435.81;5015492;28;11234;-83
2021/03/02 08:43:03;;;;;;;;;;;;;;;6.97;50.18;102434.50;4999860;28;13097;-78
2021/03/02 08:45:35;;;;;;;;;;;;;;;7.05;49.77;102447.94;5006082;28;11157;-79
2021/03/02 08:48:19;;;;;;;;;;;;;;;7.12;50.40;102451.00;5012158;28;7012;-78
2021/03/02 08:50:45;;;;;;;;;;;;;;;7.18;50.23;102456.53;5001968;28;7351;-81
2021/03/02 08:53:32;;;;;;;;;;;;;;;7.23;49.83;102452.59;4999080;28;7281;-79
2021/03/02 08:55:58;;;;;;;;;;;;;;;7.30;49.32;102446.09;5003002;28;11494;-78
2021/03/02 08:58:32;;;;;;;;;;;;;;;7.37;49.75;102449.97;4981494;28;9164;-81
2021/03/02 09:01:00;;;;;;;;;;;;;;;7.43;49.55;102447.78;5017316;28;7024;-77
2021/03/02 09:03:25;;;;;;;;;;;;;;;7.49;49.09;102454.22;4991139;28;7269;-82
2021/03/02 09:06:10;;;;;;;;;;;;;;;7.57;48.92;102447.81;5001995;28;6945;-80
2021/03/02 09:08:57;;;;;;;;;;;;;;;7.65;48.80;102447.44;4995476;28;13252;-77
2021/03/02 09:11:45;;;;;;;;;;;;;;;7.71;49.19;102452.97;5000241;28;11498;-80
2021/03/02 09:14:11;;;;;;;;;;;;;;;7.79;48.69;102450.03;5001974;28;11495;-77
2021/03/02 09:16:37;;;;;;;;;;;;;;;7.86;48.68;102453.91;5003100;28;8544;-78
2021/03/02 09:19:10;;;;;;;;;;;;;;;7.92;49.02;102456.88;5012728;28;6812;-78
2021/03/02 09:21:38;;;;;;;;;;;;;;;8.02;48.45;102459.22;5013681;28;6806;-78
2021/03/02 09:24:04;;;;;;;;;;;;;;;8.12;48.54;102458.97;4985165;28;8477;-78
2021/03/02 09:26:29;;;;;;;;;;;;;;;8.20;48.41;102449.97;4980893;28;8480;-78
2021/03/02 09:29:03;;;;;;;;;;;;;;;8.26;48.02;102449.47;4982956;28;7036;-80
2021/03/02 09:31:29;;;;;;;;;;;;;;;8.37;47.79;102450.13;4966657;28;7522;-80
2021/03/02 09:33:54;;;;;;;;;;;;;;;8.45;47.35;102452.38;4998162;28;9806;-80
2021/03/02 09:36:23;;;;;;;;;;;;;;;8.52;47.85;102454.50;5002762;28;6787;-78
2021/03/02 09:38:49;;;;;;;;;;;;;;;8.61;47.65;102455.84;5002412;28;7481;-78
2021/03/02 09:41:35;;;;;;;;;;;;;;;8.70;47.67;102449.50;4999897;28;8911;-80
2021/03/02 09:44:19;;;;;;;;;;;;;;;8.81;47.53;102460.50;5017174;28;12984;-77
2021/03/02 09:46:45;;;;;;;;;;;;;;;8.86;47.32;102464.25;5002109;28;8478;-80
2021/03/02 09:49:11;;;;;;;;;;;;;;;8.96;47.21;102465.63;5002524;28;8652;-78
2021/03/02 09:51:36;;;;;;;;;;;;;;;9.05;47.17;102463.59;5018793;28;7341;-78
2021/03/02 09:54:15;;;;;;;;;;;;;;;9.12;47.37;102456.22;5003108;28;7027;-77
2021/03/02 09:57:01;;;;;;;;;;;;;;;9.23;47.13;102455.97;5000817;28;7266;-78
2021/03/02 09:59:27;;;;;;;;;;;;;;;9.32;46.95;102457.34;5002092;28;12889;-77
2021/03/02 10:01:53;;;;;;;;;;;;;;;9.39;46.81;102466.34;4998760;28;8697;-78
2021/03/02 10:04:19;;;;;;;;;;;;;;;9.48;46.80;102459.09;4999570;28;7305;-78
2021/03/02 10:06:45;;;;;;;;;;;;;;;9.57;46.27;102450.91;5000114;28;7250;-78
2021/03/02 10:09:23;;;;;;;;;;;;;;;9.65;46.56;102455.72;4993659;28;7197;-77
2021/03/02 10:12:07;;;;;;;;;;;;;;;9.79;46.44;102450.34;5004530;28;7213;-76
2021/03/02 10:14:39;;;;;;;;;;;;;;;9.89;46.07;102450.06;5005579;28;11509;-77
2021/03/02 10:17:07;;;;;;;;;;;;;;;10.00;45.74;102454.97;5006028;28;8110;-78
2021/03/02 10:19:34;;;;;;;;;;;;;;;10.12;46.04;102451.25;5016640;28;7313;-78
2021/03/02 10:22:00;;;;;;;;;;;;;;;10.21;45.08;102447.50;5016696;28;7502;-79
2021/03/02 10:24:35;;;;;;;;;;;;;;;10.32;45.41;102455.81;5001036;28;7087;-79
2021/03/02 10:27:09;;;;;;;;;;;;;;;10.44;45.13;102450.38;4986299;28;11493;-78
2021/03/02 10:29:34;;;;;;;;;;;;;;;10.54;45.04;102445.69;4986430;28;6815;-79
2021/03/02 10:32:00;;;;;;;;;;;;;;;10.66;45.04;102455.81;5001191;28;8685;-76
2021/03/02 10:34:25;;;;;;;;;;;;;;;10.75;44.28;102451.06;4996217;28;6810;-77
2021/03/02 10:36:54;;;;;;;;;;;;;;;10.87;44.54;102450.78;5016035;28;7197;-83
2021/03/02 10:39:20;;;;;;;;;;;;;;;10.99;45.06;102461.78;4986578;28;7561;-79
2021/03/02 10:41:45;;;;;;;;;;;;;;;11.10;44.64;102463.19;5020831;28;6779;-79
2021/03/02 10:44:11;;;;;;;;;;;;;;;11.21;44.59;102458.50;4996012;28;9459;-82
2021/03/02 10:46:36;;;;;;;;;;;;;;;11.32;43.76;102456.41;5005935;28;7317;-77
2021/03/02 10:49:02;;;;;;;;;;;;;;;11.42;43.61;102458.66;5003918;28;6791;-76
2021/03/02 10:51:28;;;;;;;;;;;;;;;11.55;43.97;102451.47;5001368;28;6803;-78
2021/03/02 10:53:53;;;;;;;;;;;;;;;11.70;43.51;102450.41;5006033;28;6814;-78
2021/03/02 10:56:19;;;;;;;;;;;;;;;11.79;43.67;102451.72;5022517;28;8850;-83
2021/03/02 10:58:45;;;;;;;;;;;;;;;11.93;43.44;102444.53;5003837;28;7373;-77
2021/03/02 11:01:10;;;;;;;;;;;;;;;12.05;42.95;102445.09;5006255;28;7904;-77
2021/03/02 11:03:36;;;;;;;;;;;;;;;12.20;42.50;102442.25;5006808;28;7099;-78
2021/03/02 11:06:02;;;;;;;;;;;;;;;12.32;42.31;102439.31;5006542;28;7104;-80
2021/03/02 11:08:27;;;;;;;;;;;;;;;12.46;42.40;102438.19;5005532;28;7064;-82
2021/03/02 11:10:53;;;;;;;;;;;;;;;12.59;41.85;102436.97;5023134;28;10992;-77
2021/03/02 11:13:19;;;;;;;;;;;;;;;12.72;41.77;102432.34;4974678;28;8624;-79
2021/03/02 11:15:44;;;;;;;;;;;;;;;12.86;41.85;102432.91;5003940;28;7731;-78
2021/03/02 11:18:10;;;;;;;;;;;;;;;13.00;41.14;102438.66;5006359;28;8386;-81
2021/03/02 11:20:35;;;;;;;;;;;;;;;13.13;41.54;102429.63;5019835;28;6856;-80
2021/03/02 11:23:01;;;;;;;;;;;;;;;13.28;41.22;102425.94;5009693;28;7245;-78
2021/03/02 11:25:26;;;;;;;;;;;;;;;13.44;40.88;102426.53;5005225;28;6986;-78
2021/03/02 11:27:52;;;;;;;;;;;;;;;13.60;40.86;102424.53;5022954;28;7230;-80
2021/03/02 11:30:18;;;;;;;;;;;;;;;13.75;40.21;102420.72;5020968;28;7339;-77
2021/03/02 11:32:44;;;;;;;;;;;;;;;13.88;40.23;102421.22;5021090;28;7085;-78
2021/03/02 11:35:10;;;;;;;;;;;;;;;14.05;40.18;102421.84;5006845;28;7226;-78
2021/03/02 11:37:37;;;;;;;;;;;;;;;14.23;40.05;102417.28;5023521;28;7007;-77
2021/03/02 11:40:04;;;;;;;;;;;;;;;14.36;39.39;102410.72;5001803;28;7234;-76
2021/03/02 11:42:32;;;;;;;;;;;;;;;14.52;39.10;102402.59;5001237;28;7309;-79
2021/03/02 11:44:58;;;;;;;;;;;;;;;14.70;38.85;102393.59;5004699;28;7120;-78
2021/03/02 11:47:23;;;;;;;;;;;;;;;14.86;38.72;102394.13;5001763;28;7082;-79
2021/03/02 11:49:49;;;;;;;;;;;;;;;15.05;38.40;102399.94;4996798;28;7226;-83
2021/03/02 11:52:15;;;;;;;;;;;;;;;15.23;38.29;102390.06;4982741;28;7242;-83
2021/03/02 11:54:41;;;;;;;;;;;;;;;15.41;37.76;102385.34;4999897;28;7396;-80
2021/03/02 11:57:09;;;;;;;;;;;;;;;15.59;37.59;102391.97;5003888;28;7342;-77
2021/03/02 11:59:35;;;;;;;;;;;;;;;15.78;38.06;102389.03;5003796;28;6807;-77
2021/03/02 12:02:00;;;;;;;;;;;;;;;15.99;37.30;102379.16;5003639;28;6787;-76
2021/03/02 12:04:26;;;;;;;;;;;;;;;16.17;37.50;102370.91;5005072;28;7070;-79
2021/03/02 12:06:51;;;;;;;;;;;;;;;16.39;37.01;102373.22;5005645;28;6805;-81
2021/03/02 12:09:17;;;;;;;;;;;;;;;16.64;36.49;102363.34;5002169;28;7848;-78
2021/03/02 12:11:43;;;;;;;;;;;;;;;16.85;36.03;102363.00;5003578;28;7198;-77
2021/03/02 12:14:09;;;;;;;;;;;;;;;17.06;36.08;102358.25;4998490;28;8909;-77
2021/03/02 12:16:34;;;;;;;;;;;;;;;17.28;35.87;102364.84;4999618;28;7596;-80
2021/03/02 12:19:00;;;;;;;;;;;;;;;17.48;35.23;102353.00;4991682;28;6813;-81
2021/03/02 12:21:25;;;;;;;;;;;;;;;17.71;35.31;102350.88;4980632;28;6931;-78
2021/03/02 12:23:51;;;;;;;;;;;;;;;17.99;34.73;102348.75;4985503;28;7163;-75
2021/03/02 12:26:16;;;;;;;;;;;;;;;18.22;34.51;102347.44;4996501;28;6817;-76
2021/03/02 12:28:42;;;;;;;;;;;;;;;18.49;34.27;102344.38;4986116;28;7230;-73
2021/03/02 12:31:08;;;;;;;;;;;;;;;18.72;33.89;102342.13;4981581;28;7098;-74
2021/03/02 12:33:33;;;;;;;;;;;;;;;19.00;33.53;102343.41;5001116;28;6800;-77
2021/03/02 12:35:59;;;;;;;;;;;;;;;19.26;33.49;102341.13;4986480;28;7060;-74
2021/03/02 12:38:24;;;;;;;;;;;;;;;19.51;33.01;102345.81;4987360;28;6800;-75
2021/03/02 12:40:50;;;;;;;;;;;;;;;19.80;32.95;102342.66;4989578;28;7201;-74
2021/03/02 12:43:16;;;;;;;;;;;;;;;20.22;32.45;102337.81;4985580;28;7222;-77
2021/03/02 12:45:41;;;;;;;;;;;;;;;22.74;28.52;102337.00;4998291;28;7182;-76
2021/03/02 12:48:07;;;;;;;;;;;;;;;23.35;27.25;102334.19;5006035;28;8442;-78
2021/03/02 12:50:32;;;;;;;;;;;;;;;22.73;28.09;102329.94;4992654;28;7125;-77
2021/03/02 12:52:58;;;;;;;;;;;;;;;22.59;28.43;102315.84;4990817;28;6859;-77
2021/03/02 12:55:23;;;;;;;;;;;;;;;22.80;29.10;102316.69;4991371;28;7237;-77
2021/03/02 12:57:49;;;;;;;;;;;;;;;22.97;29.00;102321.09;4992685;28;6871;-77
2021/03/02 13:00:15;;;;;;;;;;;;;;;23.26;28.88;102318.34;4991979;28;6797;-78